createdAt,value
2024-04-15T00:01:58.923Z,7.68
2024-04-15T00:04:28.417Z,4.47
2024-04-15T00:06:58.094Z,5.13
2024-04-15T00:09:27.689Z,7.47
2024-04-15T00:11:57.185Z,6.28
2024-04-15T00:14:26.700Z,6.07
2024-04-15T00:16:59.236Z,5.78
2024-04-15T00:19:29.019Z,6.65
2024-04-15T00:21:58.644Z,6.80
2024-04-15T00:24:28.265Z,5.28
2024-04-15T00:26:57.840Z,5.93
2024-04-15T00:29:27.546Z,5.63
2024-04-15T00:31:59.834Z,6.97
2024-04-15T00:34:29.354Z,4.35
2024-04-15T00:36:58.923Z,5.47
2024-04-15T00:39:28.450Z,4.50
2024-04-15T00:41:57.972Z,5.20
2024-04-15T00:44:32.014Z,5.40
2024-04-15T00:47:06.167Z,5.38
2024-04-15T00:49:38.918Z,7.05
2024-04-15T00:52:08.838Z,4.00
2024-04-15T00:54:41.400Z,5.20
2024-04-15T00:57:11.230Z,7.22
2024-04-15T00:59:42.683Z,6.55
2024-04-15T01:02:15.013Z,6.13
2024-04-15T01:04:44.581Z,4.68
2024-04-15T01:07:14.544Z,6.60
2024-04-15T01:09:44.059Z,6.28
2024-04-15T01:12:13.555Z,9.02
2024-04-15T01:14:43.002Z,6.70
2024-04-15T01:17:15.170Z,8.10
2024-04-15T01:19:44.672Z,5.85
2024-04-15T01:22:20.671Z,4.43
2024-04-15T01:24:52.900Z,5.90
2024-04-15T01:27:22.638Z,7.05
2024-04-15T01:29:52.146Z,7.63
2024-04-15T01:32:24.504Z,5.50
2024-04-15T01:34:54.018Z,7.50
2024-04-15T01:37:23.549Z,9.77
2024-04-15T01:39:55.683Z,6.70
2024-04-15T01:42:25.234Z,6.88
2024-04-15T01:44:54.764Z,8.63
2024-04-15T01:47:24.448Z,6.43
2024-04-15T01:49:53.954Z,11.07
2024-04-15T01:52:23.569Z,8.32
2024-04-15T01:54:55.744Z,7.25
2024-04-15T01:57:25.208Z,7.78
2024-04-15T01:59:54.704Z,7.70
2024-04-15T02:02:24.185Z,5.85
2024-04-15T02:04:53.831Z,6.32
2024-04-15T02:07:23.621Z,7.80
2024-04-15T02:09:55.798Z,9.55
2024-04-15T02:12:25.460Z,6.88
2024-04-15T02:14:54.908Z,5.78
2024-04-15T02:17:24.492Z,5.55
2024-04-15T02:19:54.086Z,6.95
2024-04-15T02:22:24.077Z,6.57
2024-04-15T02:24:56.331Z,6.35
2024-04-15T02:27:25.850Z,5.65
2024-04-15T02:29:55.307Z,5.60
2024-04-15T02:32:24.943Z,5.43
2024-04-15T02:34:54.487Z,6.18
2024-04-15T02:37:24.276Z,6.15
2024-04-15T02:39:56.598Z,7.32
2024-04-15T02:42:26.182Z,6.70
2024-04-15T02:44:55.691Z,7.93
2024-04-15T02:47:25.316Z,6.30
2024-04-15T02:49:54.901Z,5.60
2024-04-15T02:52:24.546Z,6.78
2024-04-15T02:54:56.776Z,6.28
2024-04-15T02:57:26.243Z,6.80
2024-04-15T02:59:55.670Z,8.73
2024-04-15T03:02:25.230Z,7.10
2024-04-15T03:04:54.970Z,7.00
2024-04-15T03:07:24.586Z,5.97
2024-04-15T03:09:57.067Z,6.30
2024-04-15T03:12:26.611Z,8.05
2024-04-15T03:14:56.189Z,9.30
2024-04-15T03:17:25.869Z,6.75
2024-04-15T03:19:55.577Z,7.15
2024-04-15T03:22:25.088Z,6.28
2024-04-15T03:24:57.226Z,6.22
2024-04-15T03:27:26.670Z,11.02
2024-04-15T03:29:56.128Z,6.90
2024-04-15T03:32:25.696Z,8.52
2024-04-15T03:34:55.209Z,7.63
2024-04-15T03:37:24.737Z,6.20
2024-04-15T03:39:56.986Z,7.32
2024-04-15T03:42:26.509Z,6.13
2024-04-15T03:44:56.043Z,8.02
2024-04-15T03:47:25.621Z,7.28
2024-04-15T03:49:55.154Z,5.85
2024-04-15T03:52:24.723Z,7.22
2024-04-15T03:54:56.947Z,5.10
2024-04-15T03:57:26.641Z,7.43
2024-04-15T03:59:56.124Z,5.43
2024-04-15T04:02:26.080Z,5.72
2024-04-15T04:04:55.678Z,6.88
2024-04-15T04:07:25.278Z,5.93
2024-04-15T04:09:57.451Z,6.50
2024-04-15T04:12:27.021Z,9.40
2024-04-15T04:14:56.493Z,5.90
2024-04-15T04:17:26.047Z,7.63
2024-04-15T04:19:55.591Z,6.38
2024-04-15T04:22:27.763Z,7.75
2024-04-15T04:25:00.200Z,5.68
2024-04-15T04:27:29.820Z,6.43
2024-04-15T04:29:59.363Z,7.25
2024-04-15T04:32:28.868Z,7.00
2024-04-15T04:34:58.402Z,6.43
2024-04-15T04:37:28.189Z,6.72
2024-04-15T04:40:00.363Z,9.77
2024-04-15T04:42:30.018Z,3.78
2024-04-15T04:44:59.478Z,11.73
2024-04-15T04:47:29.017Z,8.05
2024-04-15T04:49:58.640Z,5.32
2024-04-15T04:52:28.093Z,9.07
2024-04-15T04:55:00.329Z,6.10
2024-04-15T04:57:30.003Z,5.82
2024-04-15T04:59:59.570Z,5.78
2024-04-15T05:02:29.049Z,8.25
2024-04-15T05:04:58.788Z,6.78
2024-04-15T05:07:28.235Z,4.78
2024-04-15T05:10:00.598Z,8.68
2024-04-15T05:12:30.230Z,6.50
2024-04-15T05:14:59.745Z,4.75
2024-04-15T05:17:29.237Z,6.35
2024-04-15T05:19:58.747Z,4.82
2024-04-15T05:22:28.415Z,3.75
2024-04-15T05:25:00.579Z,5.60
2024-04-15T05:27:30.086Z,10.13
2024-04-15T05:29:59.580Z,4.75
2024-04-15T05:32:30.491Z,6.03
2024-04-15T05:35:00.195Z,4.18
2024-04-15T05:37:29.764Z,5.25
2024-04-15T05:40:02.269Z,4.13
2024-04-15T05:42:31.770Z,7.10
2024-04-15T05:45:01.246Z,3.63
2024-04-15T05:47:30.892Z,4.22
2024-04-15T05:50:00.423Z,3.28
2024-04-15T05:52:30.020Z,4.05
2024-04-15T05:55:02.441Z,9.65
2024-04-15T05:57:31.966Z,4.40
2024-04-15T06:00:05.217Z,4.95
2024-04-15T06:02:42.784Z,4.57
2024-04-15T06:05:12.337Z,5.43
2024-04-15T06:07:41.948Z,4.60
2024-04-15T06:10:14.146Z,5.75
2024-04-15T06:12:43.672Z,5.40
2024-04-15T06:15:13.138Z,6.72
2024-04-15T06:17:42.633Z,3.97
2024-04-15T06:20:15.121Z,3.50
2024-04-15T06:22:44.651Z,5.13
2024-04-15T06:25:16.883Z,4.40
2024-04-15T06:27:46.466Z,4.85
2024-04-15T06:30:16.008Z,5.13
2024-04-15T06:32:45.532Z,4.40
2024-04-15T06:35:15.037Z,5.20
2024-04-15T06:37:44.535Z,5.85
2024-04-15T06:40:16.907Z,11.75
2024-04-15T06:42:48.312Z,6.85
2024-04-15T06:45:17.850Z,4.53
2024-04-15T06:47:47.418Z,3.38
2024-04-15T06:50:17.375Z,5.55
2024-04-15T06:52:46.853Z,4.97
2024-04-15T06:55:19.120Z,4.53
2024-04-15T06:57:48.695Z,6.78
2024-04-15T07:00:18.460Z,4.57
2024-04-15T07:02:48.042Z,5.93
2024-04-15T07:05:17.706Z,5.93
2024-04-15T07:07:47.258Z,4.93
2024-04-15T07:10:19.401Z,5.72
2024-04-15T07:12:48.902Z,5.28
2024-04-15T07:15:19.495Z,3.45
2024-04-15T07:17:49.044Z,5.57
2024-04-15T07:20:19.033Z,4.60
2024-04-15T07:22:49.485Z,5.60
2024-04-15T07:25:21.789Z,5.18
2024-04-15T07:27:51.409Z,3.47
2024-04-15T07:30:21.212Z,8.60
2024-04-15T07:32:55.767Z,4.78
2024-04-15T07:35:25.291Z,4.15
2024-04-15T07:37:55.622Z,4.60
2024-04-15T07:40:27.901Z,3.30
2024-04-15T07:42:57.448Z,7.63
2024-04-15T07:45:26.978Z,5.45
2024-04-15T07:47:56.499Z,3.50
2024-04-15T07:50:26.415Z,5.13
2024-04-15T07:52:57.187Z,6.03
2024-04-15T07:55:29.383Z,4.43
2024-04-15T07:57:59.115Z,6.03
2024-04-15T08:00:28.687Z,5.95
2024-04-15T08:02:59.032Z,4.85
2024-04-15T08:05:28.609Z,4.63
2024-04-15T08:07:58.160Z,5.90
2024-04-15T08:10:30.286Z,5.53
2024-04-15T08:12:59.780Z,5.05
2024-04-15T08:15:32.269Z,3.03
2024-04-15T08:18:01.827Z,5.15
2024-04-15T08:20:31.392Z,6.60
2024-04-15T08:23:00.923Z,6.38
2024-04-15T08:25:33.201Z,4.90
2024-04-15T08:28:02.711Z,5.18
2024-04-15T08:30:32.907Z,3.97
2024-04-15T08:33:02.483Z,6.43
2024-04-15T08:35:31.980Z,4.07
2024-04-15T08:38:01.445Z,4.70
2024-04-15T08:40:33.982Z,5.53
2024-04-15T08:43:04.982Z,5.07
2024-04-15T08:45:35.102Z,4.68
2024-04-15T08:48:06.131Z,5.63
2024-04-15T08:50:35.736Z,6.32
2024-04-15T08:53:05.277Z,3.47
2024-04-15T08:55:37.465Z,4.32
2024-04-15T08:58:07.036Z,4.75
2024-04-15T09:00:37.257Z,4.75
2024-04-15T09:03:07.594Z,6.10
2024-04-15T09:05:37.496Z,5.40
2024-04-15T09:08:09.500Z,5.25
2024-04-15T09:10:42.585Z,3.10
2024-04-15T09:13:12.106Z,7.05
2024-04-15T09:15:41.751Z,3.47
2024-04-15T09:18:11.416Z,5.82
2024-04-15T09:20:50.210Z,3.47
2024-04-15T09:23:28.062Z,4.60
2024-04-15T09:26:00.147Z,5.28
2024-04-15T09:28:40.622Z,7.43
2024-04-15T09:31:10.548Z,4.25
2024-04-15T09:33:40.124Z,5.78
2024-04-15T09:36:09.743Z,5.95
2024-04-15T09:38:42.709Z,6.03
2024-04-15T09:41:17.514Z,13.50
2024-04-15T09:43:48.377Z,8.93
2024-04-15T09:46:19.138Z,4.68
2024-04-15T09:48:50.130Z,5.50
2024-04-15T09:51:23.785Z,6.38
2024-04-15T09:53:53.984Z,6.30
2024-04-15T09:56:29.573Z,7.95
2024-04-15T09:59:03.293Z,6.43
2024-04-15T10:01:38.112Z,7.72
2024-04-15T10:04:19.617Z,3.80
2024-04-15T10:06:54.361Z,6.53
2024-04-15T10:09:25.735Z,5.38
2024-04-15T10:11:58.468Z,5.63
2024-04-15T10:14:28.577Z,5.95
2024-04-15T10:16:59.235Z,6.65
2024-04-15T10:19:30.440Z,7.50
2024-04-15T10:22:00.926Z,5.88
2024-04-15T10:24:32.652Z,6.30
2024-04-15T10:27:08.122Z,5.00
2024-04-15T10:29:39.595Z,3.80
2024-04-15T10:32:09.838Z,5.03
2024-04-15T10:34:42.570Z,4.95
2024-04-15T10:37:16.463Z,5.05
2024-04-15T10:39:49.790Z,5.93
2024-04-15T10:42:21.937Z,5.40
2024-04-15T10:44:52.728Z,4.93
2024-04-15T10:47:22.268Z,6.43
2024-04-15T10:49:51.912Z,4.95
2024-04-15T10:52:21.686Z,4.43
2024-04-15T10:54:51.611Z,4.22
2024-04-15T10:57:24.185Z,6.80
2024-04-15T10:59:54.501Z,3.92
2024-04-15T11:02:24.104Z,5.50
2024-04-15T11:04:53.702Z,5.88
2024-04-15T11:07:23.320Z,5.63
2024-04-15T11:09:52.886Z,5.32
2024-04-15T11:12:25.074Z,5.65
2024-04-15T11:14:55.919Z,7.65
2024-04-15T11:17:25.502Z,9.50
2024-04-15T11:20:00.351Z,7.10
2024-04-15T11:22:30.122Z,7.40
2024-04-15T11:25:01.101Z,3.78
2024-04-15T11:27:35.940Z,6.70
2024-04-15T11:30:08.369Z,6.68
2024-04-15T11:32:38.340Z,5.77
2024-04-15T11:35:10.468Z,6.50
2024-04-15T11:37:40.030Z,4.85
2024-04-15T11:40:13.324Z,4.45
2024-04-15T11:42:45.640Z,5.50
2024-04-15T11:45:16.322Z,10.18
2024-04-15T11:47:51.690Z,7.68
2024-04-15T11:50:22.183Z,4.85
2024-04-15T11:52:51.739Z,4.82
2024-04-15T11:55:22.764Z,5.80
2024-04-15T11:57:55.171Z,4.38
2024-04-15T12:00:24.762Z,4.93
2024-04-15T12:02:54.297Z,7.00
2024-04-15T12:05:27.727Z,3.45
2024-04-15T12:07:57.931Z,5.13
2024-04-15T12:10:28.683Z,5.90
2024-04-15T12:13:01.281Z,5.20
2024-04-15T12:15:30.832Z,5.22
2024-04-15T12:18:00.395Z,5.78
2024-04-15T12:20:29.869Z,8.85
2024-04-15T12:22:59.380Z,9.57
2024-04-15T12:25:28.946Z,5.78
2024-04-15T12:28:01.189Z,5.95
2024-04-15T12:30:30.696Z,7.63
2024-04-15T12:33:02.243Z,4.55
2024-04-15T12:35:32.179Z,7.25
2024-04-15T12:38:01.862Z,5.82
2024-04-15T12:40:31.511Z,4.47
2024-04-15T12:43:04.829Z,4.63
2024-04-15T12:45:36.254Z,6.90
2024-04-15T12:48:15.236Z,5.40
2024-04-15T12:50:45.524Z,7.00
2024-04-15T12:53:15.401Z,6.70
2024-04-15T12:55:46.935Z,6.13
2024-04-15T12:58:20.043Z,5.35
2024-04-15T13:00:49.903Z,5.97
2024-04-15T13:03:19.521Z,5.80
2024-04-15T13:05:49.222Z,5.00
2024-04-15T13:08:18.762Z,5.35
2024-04-15T13:10:48.256Z,4.80
2024-04-15T13:13:20.433Z,6.53
2024-04-15T13:15:50.004Z,5.13
2024-04-15T13:18:19.667Z,4.55
2024-04-15T13:20:49.295Z,6.28
2024-04-15T13:23:19.128Z,5.38
2024-04-15T13:25:48.587Z,9.45
2024-04-15T13:28:20.730Z,6.63
2024-04-15T13:30:52.004Z,8.05
2024-04-15T13:33:22.098Z,6.22
2024-04-15T13:35:51.926Z,7.90
2024-04-15T13:38:21.844Z,7.38
2024-04-15T13:40:51.599Z,8.60
2024-04-15T13:43:23.914Z,7.60
2024-04-15T13:45:53.500Z,6.53
2024-04-15T13:48:23.103Z,6.55
2024-04-15T13:50:52.657Z,7.95
2024-04-15T13:53:22.146Z,7.00
2024-04-15T13:55:51.803Z,6.40
2024-04-15T13:58:24.122Z,7.38
2024-04-15T14:00:55.784Z,6.30
2024-04-15T14:03:26.043Z,6.57
2024-04-15T14:05:55.857Z,6.90
2024-04-15T14:08:25.794Z,7.22
2024-04-15T14:10:56.443Z,7.40
2024-04-15T14:13:29.152Z,5.95
2024-04-15T14:15:58.972Z,4.63
2024-04-15T14:18:28.712Z,5.93
2024-04-15T14:20:58.290Z,7.30
2024-04-15T14:23:28.079Z,8.20
2024-04-15T14:25:57.641Z,9.80
2024-04-15T14:28:29.805Z,7.20
2024-04-15T14:30:59.387Z,7.68
2024-04-15T14:33:28.950Z,7.57
2024-04-15T14:35:58.468Z,5.63
2024-04-15T14:38:27.964Z,4.30
2024-04-15T14:40:58.199Z,4.50
2024-04-15T14:43:30.567Z,6.70
2024-04-15T14:46:00.121Z,6.25
2024-04-15T14:48:29.690Z,6.53
2024-04-15T14:50:59.845Z,3.47
2024-04-15T14:53:31.197Z,6.30
2024-04-15T14:56:00.818Z,8.13
2024-04-15T14:58:33.112Z,8.85
2024-04-15T15:01:02.671Z,4.75
2024-04-15T15:03:32.537Z,6.00
2024-04-15T15:06:03.370Z,5.95
2024-04-15T15:08:33.465Z,4.68
2024-04-15T15:11:06.526Z,7.18
2024-04-15T15:13:40.414Z,8.90
2024-04-15T15:16:10.947Z,8.30
2024-04-15T15:18:40.619Z,3.95
2024-04-15T15:21:20.112Z,6.05
2024-04-15T15:23:53.322Z,6.32
2024-04-15T15:26:23.176Z,5.47
2024-04-15T15:28:55.379Z,5.72
2024-04-15T15:31:24.863Z,11.07
2024-04-15T15:33:55.244Z,7.45
2024-04-15T15:36:24.925Z,4.00
2024-04-15T15:38:54.426Z,7.85
2024-04-15T15:41:23.931Z,9.95
2024-04-15T15:43:56.165Z,4.10
2024-04-15T15:46:25.790Z,5.55
2024-04-15T15:48:55.563Z,7.18
2024-04-15T15:51:25.123Z,10.05
2024-04-15T15:53:54.689Z,3.92
2024-04-15T15:56:24.267Z,7.05
2024-04-15T15:58:56.437Z,5.65
2024-04-15T16:01:28.321Z,4.28
2024-04-15T16:03:59.841Z,8.20
2024-04-15T16:06:29.495Z,7.00
2024-04-15T16:08:59.066Z,5.85
2024-04-15T16:11:35.808Z,6.60
2024-04-15T16:14:14.651Z,5.50
2024-04-15T16:16:44.219Z,5.05
2024-04-15T16:19:14.511Z,5.93
2024-04-15T16:21:45.024Z,4.43
2024-04-15T16:24:14.515Z,3.45
2024-04-15T16:26:44.000Z,3.60
2024-04-15T16:29:16.409Z,4.95
2024-04-15T16:31:45.934Z,3.30
2024-04-15T16:34:15.437Z,3.58
2024-04-15T16:36:45.348Z,2.28
2024-04-15T16:39:14.886Z,4.95
2024-04-15T16:41:44.469Z,4.50
2024-04-15T16:44:16.640Z,5.70
2024-04-15T16:46:46.369Z,2.50
2024-04-15T16:49:15.916Z,4.82
2024-04-15T16:51:45.489Z,5.93
2024-04-15T16:54:14.986Z,5.30
2024-04-15T16:56:44.555Z,9.50
2024-04-15T16:59:16.923Z,4.07
2024-04-15T17:01:46.614Z,5.57
2024-04-15T17:04:16.163Z,2.30
2024-04-15T17:06:45.867Z,3.38
2024-04-15T17:09:15.651Z,4.30
2024-04-15T17:11:45.096Z,4.10
2024-04-15T17:14:18.104Z,5.50
2024-04-15T17:16:47.611Z,3.85
2024-04-15T17:19:17.183Z,4.82
2024-04-15T17:21:46.666Z,4.78
2024-04-15T17:24:16.192Z,2.70
2024-04-15T17:26:45.891Z,1.70
2024-04-15T17:29:18.526Z,2.95
2024-04-15T17:31:48.054Z,5.40
2024-04-15T17:34:17.614Z,1.63
2024-04-15T17:36:47.309Z,3.25
2024-04-15T17:39:16.803Z,3.17
2024-04-15T17:41:46.355Z,6.50
2024-04-15T17:44:18.731Z,6.65
2024-04-15T17:46:48.706Z,2.80
2024-04-15T17:49:18.202Z,5.07
2024-04-15T17:51:47.691Z,3.25
2024-04-15T17:54:17.225Z,2.13
2024-04-15T17:56:47.856Z,4.63
2024-04-15T17:59:20.037Z,6.07
2024-04-15T18:01:49.691Z,5.05
2024-04-15T18:04:19.532Z,2.60
2024-04-15T18:06:49.127Z,8.40
2024-04-15T18:09:18.712Z,5.25
2024-04-15T18:11:48.528Z,3.05
2024-04-15T18:14:22.357Z,3.15
2024-04-15T18:16:52.631Z,5.35
2024-04-15T18:19:22.410Z,3.85
2024-04-15T18:21:53.664Z,2.63
2024-04-15T18:24:24.071Z,3.30
2024-04-15T18:26:53.538Z,3.35
2024-04-15T18:29:25.782Z,4.10
2024-04-15T18:31:55.340Z,3.97
2024-04-15T18:34:30.099Z,2.05
2024-04-15T18:37:00.048Z,4.20
2024-04-15T18:39:29.742Z,3.88
2024-04-15T18:41:59.581Z,4.55
2024-04-15T18:44:31.711Z,4.43
2024-04-15T18:47:01.574Z,2.45
2024-04-15T18:49:31.246Z,1.83
2024-04-15T18:52:01.247Z,1.90
2024-04-15T18:54:31.197Z,1.35
2024-04-15T18:57:00.733Z,10.02
2024-04-15T18:59:33.494Z,9.30
2024-04-15T19:02:03.050Z,5.70
2024-04-15T19:04:33.122Z,3.63
2024-04-15T19:07:05.865Z,2.47
2024-04-15T19:09:35.702Z,5.03
2024-04-15T19:12:05.868Z,3.33
2024-04-15T19:14:51.796Z,6.30
2024-04-15T19:17:28.680Z,4.55
2024-04-15T19:19:58.575Z,3.30
2024-04-15T19:22:28.214Z,2.90
2024-04-15T19:25:02.835Z,2.15
2024-04-15T19:27:32.975Z,2.90
2024-04-15T19:30:06.035Z,6.47
2024-04-15T19:32:36.953Z,7.65
2024-04-15T19:35:06.984Z,8.10
2024-04-15T19:37:36.754Z,4.57
2024-04-15T19:40:07.530Z,4.28
2024-04-15T19:42:37.086Z,0.70
2024-04-15T19:45:11.665Z,1.27
2024-04-15T19:47:41.618Z,1.08
2024-04-15T19:50:11.378Z,2.10
2024-04-15T19:52:40.962Z,0.93
2024-04-15T19:55:10.652Z,2.15
2024-04-15T19:57:42.919Z,1.55
2024-04-15T20:00:18.883Z,1.25
2024-04-15T20:02:48.697Z,1.02
2024-04-15T20:05:18.352Z,1.40
2024-04-15T20:07:47.899Z,0.63
2024-04-15T20:10:17.522Z,2.03
2024-04-15T20:12:47.049Z,1.52
2024-04-15T20:15:19.317Z,1.00
2024-04-15T20:18:07.257Z,1.00
2024-04-15T20:20:45.660Z,0.40
2024-04-15T20:23:15.833Z,0.60
2024-04-15T20:25:46.118Z,0.47
2024-04-15T20:28:16.084Z,0.63
2024-04-15T20:30:48.936Z,1.55
2024-04-15T20:33:18.529Z,2.58
2024-04-15T20:35:48.382Z,0.85
2024-04-15T20:38:17.906Z,0.88
2024-04-15T20:40:47.569Z,1.15
2024-04-15T20:43:17.152Z,3.00
2024-04-15T20:45:49.495Z,0.38
2024-04-15T20:48:19.215Z,0.65
2024-04-15T20:50:48.761Z,1.83
2024-04-15T20:53:18.242Z,0.40
2024-04-15T20:55:47.717Z,1.17
2024-04-15T20:58:17.246Z,0.93
2024-04-15T21:00:49.531Z,1.70
2024-04-15T21:03:19.244Z,0.80
2024-04-15T21:05:48.807Z,1.20
2024-04-15T21:08:18.293Z,1.05
2024-04-15T21:10:47.909Z,2.28
2024-04-15T21:13:17.478Z,2.30
2024-04-15T21:15:49.817Z,1.02
2024-04-15T21:18:19.411Z,1.30
2024-04-15T21:20:48.879Z,1.17
2024-04-15T21:23:18.356Z,1.85
2024-04-15T21:25:47.846Z,0.47
2024-04-15T21:28:17.363Z,3.00
2024-04-15T21:30:49.843Z,0.70
2024-04-15T21:33:20.735Z,2.60
2024-04-15T21:35:51.123Z,0.95
2024-04-15T21:38:20.563Z,1.52
2024-04-15T21:40:50.221Z,1.98
2024-04-15T21:43:19.749Z,0.95
2024-04-15T21:45:52.092Z,1.60
2024-04-15T21:48:21.703Z,2.08
2024-04-15T21:50:51.325Z,2.45
2024-04-15T21:53:20.810Z,2.90
2024-04-15T21:55:50.436Z,0.75
2024-04-15T21:58:19.938Z,0.60
2024-04-15T22:00:52.170Z,1.35
2024-04-15T22:03:21.828Z,0.73
2024-04-15T22:05:51.421Z,3.13
2024-04-15T22:08:20.855Z,1.55
2024-04-15T22:10:50.366Z,0.60
2024-04-15T22:13:19.985Z,0.82
2024-04-15T22:15:52.415Z,4.85
2024-04-15T22:18:21.955Z,0.70
2024-04-15T22:20:51.465Z,3.70
2024-04-15T22:23:20.915Z,1.25
2024-04-15T22:25:54.445Z,1.35
2024-04-15T22:28:24.015Z,0.63
2024-04-15T22:30:58.866Z,2.28
2024-04-15T22:33:28.440Z,0.93
2024-04-15T22:35:57.937Z,1.63
2024-04-15T22:38:28.407Z,4.28
2024-04-15T22:40:58.011Z,1.13
2024-04-15T22:43:27.561Z,1.90
2024-04-15T22:45:59.794Z,2.08
2024-04-15T22:48:29.312Z,3.72
2024-04-15T22:50:58.864Z,2.03
2024-04-15T22:53:28.399Z,2.25
2024-04-15T22:55:58.056Z,4.07
2024-04-15T22:58:27.622Z,2.15
2024-04-15T23:00:59.840Z,1.35
2024-04-15T23:03:29.470Z,2.72
2024-04-15T23:05:58.950Z,2.35
2024-04-15T23:08:28.445Z,1.63
2024-04-15T23:10:57.988Z,1.65
2024-04-15T23:13:27.598Z,1.40
2024-04-15T23:15:59.814Z,2.35
2024-04-15T23:18:32.779Z,3.45
2024-04-15T23:21:02.244Z,1.85
2024-04-15T23:23:31.736Z,3.95
2024-04-15T23:26:01.473Z,2.90
2024-04-15T23:28:32.794Z,3.63
2024-04-15T23:31:05.136Z,2.55
2024-04-15T23:33:35.737Z,3.22
2024-04-15T23:36:06.109Z,0.73
2024-04-15T23:38:35.618Z,1.38
2024-04-15T23:41:05.104Z,0.95
2024-04-15T23:43:34.531Z,1.10
2024-04-15T23:46:25.223Z,0.40
2024-04-15T23:49:13.492Z,2.08
2024-04-15T23:52:01.643Z,0.43
2024-04-15T23:54:50.035Z,0.68
2024-04-15T23:57:38.452Z,0.47
